Time;durP1;ratioP1;P1;durP2;ratioP2;P2;SDS_P1;SDS_P2;PMS_P1;PMS_P2;Temp;Humidity;BMP_temperature;BMP_pressure;BME280_temperature;BME280_humidity;BME280_pressure;Samples;Min_cycle;Max_cycle;Signal;HPM_P1;HPM_P2
2023/07/04 06:21:48;;;;;;;9.50;2.60;;;;;;;17.22;78.41;96546.03;2100623;27;20550;-58
2023/07/04 06:23:57;;;;;;;10.68;2.95;;;;;;;17.65;77.98;96536.75;2094731;27;20906;-58
2023/07/04 06:24:58;;;;;;;11.75;3.15;;;;;;;17.72;76.29;96539.75;2073258;28;20221;-57
2023/07/04 06:27:24;;;;;;;7.10;3.05;;;;;;;17.58;75.96;96536.34;2084548;28;20558;-58
2023/07/04 07:11:19;;;;;;;14.32;3.03;;;;;;;17.92;72.98;96576.06;2102042;27;20574;-60
2023/07/04 07:13:34;;;;;;;7.95;2.78;;;;;;;18.03;72.74;96585.00;2085137;28;20608;-59
2023/07/04 07:15:48;;;;;;;6.25;2.50;;;;;;;18.14;72.48;96576.28;2085107;28;20577;-59
2023/07/04 07:18:02;;;;;;;12.90;3.75;;;;;;;18.32;72.82;96581.94;2101166;27;20962;-59
2023/07/04 07:19:03;;;;;;;12.63;3.78;;;;;;;18.55;71.93;96574.88;2096881;28;20703;-60
2023/07/04 07:21:29;;;;;;;8.85;2.67;;;;;;;18.51;70.20;96581.38;2085353;28;20567;-59
2023/07/04 07:22:31;;;;;;;7.68;2.90;;;;;;;18.42;70.00;96590.84;2082783;28;20225;-59
2023/07/04 07:23:34;;;;;;;9.30;3.40;;;;;;;18.56;70.15;96584.50;2083003;28;20200;-60
2023/07/04 07:24:36;;;;;;;9.25;3.20;;;;;;;18.74;69.95;96577.78;2077090;28;20220;-60
2023/07/04 07:25:38;;;;;;;6.25;2.63;;;;;;;18.78;69.89;96581.03;2073119;28;20224;-60
2023/07/04 07:26:39;;;;;;;5.65;2.65;;;;;;;18.97;69.31;96584.84;2071831;28;20268;-59
2023/07/04 07:27:41;;;;;;;10.98;3.10;;;;;;;18.64;68.54;96579.47;2072010;28;20766;-59
2023/07/04 07:28:43;;;;;;;13.57;3.10;;;;;;;18.48;68.70;96568.41;2074590;28;20285;-60
2023/07/04 07:29:48;;;;;;;11.57;4.60;;;;;;;18.59;67.93;96584.28;2072068;28;20264;-60
2023/07/04 07:31:00;;;;;;;8.20;3.83;;;;;;;18.74;68.28;96576.91;2074635;28;20202;-60
2023/07/04 07:32:05;;;;;;;6.75;2.67;;;;;;;18.80;68.22;96583.53;2075399;28;20205;-60
2023/07/04 07:33:06;;;;;;;8.68;2.95;;;;;;;18.80;67.45;96586.19;2075643;28;20208;-60
2023/07/04 07:34:08;;;;;;;9.48;3.50;;;;;;;18.79;66.70;96589.78;2074557;28;20204;-60
2023/07/04 07:35:10;;;;;;;8.82;3.45;;;;;;;18.86;66.90;96591.81;2078190;28;20208;-60
2023/07/04 07:36:23;;;;;;;9.23;2.58;;;;;;;19.23;65.96;96590.72;2078183;28;20205;-60
2023/07/04 07:37:25;;;;;;;8.20;3.00;;;;;;;19.02;65.98;96594.13;2073262;28;20216;-60
2023/07/04 07:38:26;;;;;;;8.98;2.88;;;;;;;18.90;66.29;96582.69;2072383;28;20197;-60
2023/07/04 07:39:28;;;;;;;12.25;3.67;;;;;;;19.12;66.69;96588.09;2072499;28;20299;-60
2023/07/04 07:40:29;;;;;;;12.88;3.22;;;;;;;19.42;65.61;96585.59;2074686;28;20784;-61
2023/07/04 07:41:37;;;;;;;12.10;3.63;;;;;;;19.23;65.43;96580.13;2074997;28;20217;-62
2023/07/04 07:42:38;;;;;;;20.17;3.70;;;;;;;19.48;65.08;96588.75;2073858;28;20197;-62
2023/07/04 07:43:41;;;;;;;11.23;3.28;;;;;;;19.36;65.24;96595.84;2073444;28;20231;-62
2023/07/04 07:44:43;;;;;;;11.27;2.92;;;;;;;19.45;64.89;96586.31;2074110;28;20225;-62
2023/07/04 07:45:46;;;;;;;7.80;3.60;;;;;;;19.94;64.27;96584.13;2073193;28;20202;-60
2023/07/04 07:46:47;;;;;;;10.65;3.40;;;;;;;19.86;64.43;96593.53;2072038;28;20198;-60
2023/07/04 07:47:49;;;;;;;13.70;3.83;;;;;;;19.73;63.63;96590.19;2070714;28;20209;-60
2023/07/04 07:48:51;;;;;;;19.20;3.17;;;;;;;19.71;64.45;96586.84;2071111;28;20656;-60
2023/07/04 07:49:52;;;;;;;7.47;2.88;;;;;;;19.92;63.14;96592.19;2071748;28;20271;-60
2023/07/04 07:50:54;;;;;;;10.65;3.03;;;;;;;20.04;64.04;96587.69;2070573;28;20300;-61
2023/07/04 07:51:56;;;;;;;9.90;3.15;;;;;;;20.19;62.84;96581.06;2072585;28;20204;-60
2023/07/04 07:52:57;;;;;;;11.13;3.40;;;;;;;20.21;62.12;96592.41;2071659;28;20678;-60
2023/07/04 07:54:01;;;;;;;10.25;3.38;;;;;;;20.38;62.22;96590.13;2074661;28;20540;-60
2023/07/04 07:55:02;;;;;;;10.13;3.10;;;;;;;20.65;62.05;96588.72;2075112;28;20867;-60
2023/07/04 07:56:05;;;;;;;14.10;3.17;;;;;;;20.93;61.70;96589.00;2075355;28;20194;-60
2023/07/04 07:57:07;;;;;;;10.80;3.78;;;;;;;21.00;61.08;96590.97;2074845;28;20558;-60
2023/07/04 07:58:09;;;;;;;13.02;3.50;;;;;;;20.84;61.14;96586.16;2072811;28;20233;-60
2023/07/04 07:59:12;;;;;;;16.27;4.65;;;;;;;20.73;61.13;96583.59;2069504;28;20205;-60
2023/07/04 08:00:14;;;;;;;26.52;15.90;;;;;;;21.08;60.54;96582.34;2072026;28;20653;-60
2023/07/04 08:01:19;;;;;;;33.53;22.45;;;;;;;21.08;60.34;96581.47;2074819;28;20210;-61
2023/07/04 08:02:20;;;;;;;48.17;31.65;;;;;;;20.92;60.52;96574.88;2073389;28;20228;-61
2023/07/04 08:03:22;;;;;;;59.35;38.30;;;;;;;20.98;60.45;96576.16;2073516;28;20664;-61
2023/07/04 08:04:25;;;;;;;69.60;43.42;;;;;;;21.17;60.16;96572.72;2073498;28;20225;-61
2023/07/04 08:05:26;;;;;;;27.55;15.50;;;;;;;21.28;59.22;96575.25;2070352;28;20281;-61
2023/07/04 08:06:41;;;;;;;72.35;65.50;;;;;;;21.32;59.67;96570.53;2070646;28;20259;-61
2023/07/04 08:07:43;;;;;;;446.77;412.17;;;;;;;21.33;58.91;96572.19;2072354;28;20212;-61
2023/07/04 08:08:44;;;;;;;1087.95;926.92;;;;;;;20.81;60.08;96569.66;2072351;28;20198;-61
2023/07/04 08:09:46;;;;;;;346.75;321.05;;;;;;;21.03;60.53;96572.13;2069397;28;20272;-61
2023/07/04 08:10:47;;;;;;;68.97;61.35;;;;;;;21.30;60.53;96573.28;2074420;28;20356;-61
2023/07/04 08:11:49;;;;;;;119.90;109.25;;;;;;;21.66;59.73;96570.13;2073852;28;20198;-61
2023/07/04 08:12:51;;;;;;;453.95;418.73;;;;;;;21.45;60.16;96572.91;2074148;28;20251;-61
2023/07/04 08:13:53;;;;;;;924.63;848.03;;;;;;;21.39;59.78;96565.50;2070395;28;20657;-61
2023/07/04 08:14:55;;;;;;;1030.57;905.53;;;;;;;21.47;60.33;96573.59;2071396;28;20329;-61
2023/07/04 08:15:57;;;;;;;1941.15;999.90;;;;;;;21.35;60.03;96564.94;2074285;28;20307;-61
2023/07/04 08:16:58;;;;;;;1864.25;999.90;;;;;;;21.54;59.57;96572.06;2072089;28;20209;-61
2023/07/04 08:18:10;;;;;;;1770.13;999.90;;;;;;;21.24;60.08;96575.66;2074828;28;20205;-61
2023/07/04 08:19:13;;;;;;;2250.00;999.90;;;;;;;21.26;60.25;96566.59;2074592;28;20724;-61
2023/07/04 08:20:14;;;;;;;878.17;796.63;;;;;;;21.07;58.39;96575.34;2073360;28;20332;-61
2023/07/04 08:21:17;;;;;;;1540.85;893.38;;;;;;;20.75;57.23;96573.72;2075581;28;20229;-61
2023/07/04 08:22:18;;;;;;;698.03;624.42;;;;;;;20.46;58.05;96570.91;2073079;28;20744;-61
2023/07/04 08:30:07;;;;;;;1595.43;999.90;;;;;;;20.18;60.61;96568.78;2099938;27;21065;-60
2023/07/04 08:32:11;;;;;;;2190.93;999.90;;;;;;;20.44;60.88;96575.50;2084529;28;20550;-61
2023/07/04 08:34:26;;;;;;;1134.50;774.13;;;;;;;20.53;58.61;96570.25;2090775;27;20559;-60
2023/07/04 08:35:27;;;;;;;728.75;657.10;;;;;;;20.37;59.29;96575.19;2081276;28;20300;-60
2023/07/04 08:36:29;;;;;;;860.03;777.55;;;;;;;20.30;59.02;96572.22;2078887;28;20186;-60
2023/07/04 08:37:30;;;;;;;657.08;581.22;;;;;;;20.33;58.72;96569.31;2076128;28;20770;-61
2023/07/04 08:38:32;;;;;;;1534.65;893.05;;;;;;;20.41;58.70;96575.78;2077681;28;20524;-61
2023/07/04 08:39:34;;;;;;;718.72;649.03;;;;;;;20.62;58.15;96571.25;2077674;28;20221;-61
2023/07/04 08:40:41;;;;;;;2250.00;999.90;;;;;;;20.59;57.26;96570.69;2079558;28;20197;-61
2023/07/04 08:41:52;;;;;;;2250.00;999.90;;;;;;;20.95;55.67;96576.41;2082423;28;20255;-61
2023/07/04 08:42:54;;;;;;;2250.00;999.90;;;;;;;21.28;54.37;96569.09;2082387;28;20275;-61
2023/07/04 08:44:05;;;;;;;2250.00;999.90;;;;;;;21.35;53.69;96573.72;2078163;28;20193;-61
2023/07/04 08:45:11;;;;;;;2250.00;999.90;;;;;;;21.63;52.80;96570.44;2069388;28;20221;-61
2023/07/04 08:46:15;;;;;;;2250.00;999.90;;;;;;;21.92;52.54;96564.28;2068592;28;20198;-60
2023/07/04 08:47:25;;;;;;;2250.00;999.90;;;;;;;22.11;52.61;96566.91;2065541;28;20230;-61
2023/07/04 08:48:27;;;;;;;2250.00;999.90;;;;;;;21.93;53.26;96566.78;2065026;28;20191;-61
2023/07/04 08:49:40;;;;;;;2250.00;999.90;;;;;;;22.48;52.27;96571.44;2068896;28;20225;-61
2023/07/04 08:50:45;;;;;;;2250.00;999.90;;;;;;;22.46;51.02;96580.56;2080043;28;20212;-60
2023/07/04 08:51:54;;;;;;;2250.00;999.90;;;;;;;22.21;51.26;96561.56;2086268;28;20231;-60
2023/07/04 08:53:22;;;;;;;2250.00;999.90;;;;;;;22.53;50.72;96576.34;2085851;28;20193;-60
2023/07/04 08:54:25;;;;;;;2250.00;999.90;;;;;;;22.16;51.34;96567.31;2083347;28;20599;-60
2023/07/04 08:55:28;;;;;;;2250.00;999.90;;;;;;;21.82;51.45;96569.59;2086385;28;20193;-60
2023/07/04 08:56:36;;;;;;;2250.00;999.90;;;;;;;21.45;52.31;96565.78;2084268;28;20193;-60
2023/07/04 08:57:57;;;;;;;2250.00;999.90;;;;;;;21.06;52.90;96570.19;2083800;28;20193;-60
2023/07/04 08:59:16;;;;;;;2250.00;999.90;;;;;;;20.93;53.25;96565.13;2086217;28;20328;-61
2023/07/04 09:00:25;;;;;;;2250.00;999.90;;;;;;;20.99;53.82;96568.06;2087342;28;20224;-61
2023/07/04 09:01:38;;;;;;;2250.00;999.90;;;;;;;21.36;53.21;96571.91;2088233;28;20192;-61
2023/07/04 09:02:55;;;;;;;2250.00;999.90;;;;;;;21.32;52.23;96579.31;2089057;28;20588;-61
2023/07/04 09:04:06;;;;;;;2250.00;999.90;;;;;;;21.17;52.44;96565.59;2088033;28;20281;-61
2023/07/04 09:05:23;;;;;;;2250.00;999.90;;;;;;;21.65;52.02;96565.84;2087534;28;20215;-61
2023/07/04 09:06:40;;;;;;;2250.00;999.90;;;;;;;22.00;50.57;96565.25;2083957;28;20384;-61
2023/07/04 09:07:51;;;;;;;2250.00;999.90;;;;;;;22.29;51.10;96568.81;2087265;28;20405;-61
2023/07/04 09:09:08;;;;;;;2250.00;999.90;;;;;;;22.39;50.12;96572.31;2087826;28;20200;-61
2023/07/04 09:10:28;;;;;;;2250.00;999.90;;;;;;;22.86;50.51;96570.63;2088866;28;20228;-61
2023/07/04 09:11:30;;;;;;;1286.97;649.97;;;;;;;22.80;49.20;96564.91;2091426;28;20207;-61
2023/07/04 09:12:35;;;;;;;1359.20;731.38;;;;;;;22.72;49.84;96571.94;2089348;28;20325;-61
2023/07/04 09:13:40;;;;;;;2250.00;999.90;;;;;;;22.90;49.59;96569.34;2089772;28;20255;-61
2023/07/04 09:14:53;;;;;;;781.25;712.00;;;;;;;22.77;49.39;96572.34;2086799;28;20220;-61
2023/07/04 09:16:00;;;;;;;836.78;764.42;;;;;;;23.00;49.44;96568.28;2085649;28;20825;-61
2023/07/04 09:17:10;;;;;;;861.05;787.97;;;;;;;23.30;48.32;96560.19;2086867;28;20208;-60
2023/07/04 09:18:27;;;;;;;759.45;695.78;;;;;;;23.89;47.90;96568.56;2083129;28;20197;-60
2023/07/04 09:19:35;;;;;;;792.33;723.80;;;;;;;24.42;47.66;96561.47;2075189;28;20224;-61
2023/07/04 09:20:51;;;;;;;405.95;304.88;;;;;;;24.76;46.16;96559.84;2074186;28;20264;-60
2023/07/04 09:21:52;;;;;;;640.92;579.22;;;;;;;24.74;46.53;96551.16;2085060;28;20204;-60
2023/07/04 09:22:54;;;;;;;1163.53;997.20;;;;;;;24.10;47.05;96562.09;2085190;28;20203;-61
2023/07/04 09:24:01;;;;;;;720.22;644.88;;;;;;;23.55;48.10;96568.41;2084555;28;20525;-60
2023/07/04 09:25:04;;;;;;;618.15;551.60;;;;;;;23.22;48.96;96557.41;2088285;28;20242;-60
2023/07/04 09:26:10;;;;;;;1083.97;969.20;;;;;;;22.71;49.41;96571.09;2091803;28;20762;-60
2023/07/04 09:27:14;;;;;;;534.72;476.45;;;;;;;22.64;49.94;96564.69;2091046;28;20192;-60
2023/07/04 09:28:15;;;;;;;873.72;786.88;;;;;;;22.66;50.00;96565.38;2087261;28;20196;-60
2023/07/04 09:29:20;;;;;;;742.85;667.58;;;;;;;22.29;50.65;96564.34;2085671;28;20201;-60
2023/07/04 09:30:22;;;;;;;822.50;746.45;;;;;;;22.05;51.41;96569.28;2085693;28;20193;-60
2023/07/04 09:31:29;;;;;;;739.63;672.33;;;;;;;22.27;50.90;96570.78;2086620;28;20284;-61
2023/07/04 09:32:31;;;;;;;714.35;648.33;;;;;;;22.88;49.93;96563.31;2085177;28;20203;-60
2023/07/04 09:33:35;;;;;;;750.00;677.58;;;;;;;23.10;49.41;96568.25;2087050;28;20254;-60
2023/07/04 09:34:41;;;;;;;713.42;649.83;;;;;;;23.61;49.23;96563.31;2090437;28;20613;-60
2023/07/04 09:35:43;;;;;;;679.25;616.63;;;;;;;24.20;47.94;96562.84;2085254;28;20207;-60
2023/07/04 09:36:47;;;;;;;679.20;611.33;;;;;;;24.15;47.92;96561.63;2082993;28;20200;-60
2023/07/04 09:38:00;;;;;;;1090.07;981.65;;;;;;;23.74;48.08;96568.25;2083501;28;20223;-61
2023/07/04 09:39:05;;;;;;;742.17;667.92;;;;;;;23.65;48.47;96561.19;2083233;28;20201;-61
2023/07/04 09:40:07;;;;;;;1209.82;999.90;;;;;;;23.45;47.92;96564.00;2084387;28;20222;-60
2023/07/04 09:41:12;;;;;;;910.83;825.38;;;;;;;23.83;48.05;96568.34;2085884;28;20196;-60
2023/07/04 09:42:15;;;;;;;743.97;677.58;;;;;;;24.48;47.64;96572.50;2086209;28;20706;-61
2023/07/04 09:43:32;;;;;;;1096.60;989.35;;;;;;;24.22;47.45;96563.50;2085977;28;20196;-60
2023/07/04 09:44:36;;;;;;;980.13;889.05;;;;;;;24.33;47.33;96569.56;2084586;28;20612;-60
2023/07/04 09:45:39;;;;;;;1210.78;999.90;;;;;;;23.79;47.63;96576.66;2080864;28;20346;-61
2023/07/04 09:46:47;;;;;;;1353.93;999.90;;;;;;;23.75;47.79;96566.44;2078810;28;20231;-61
2023/07/04 09:47:48;;;;;;;1296.07;999.90;;;;;;;23.70;47.71;96574.88;2080540;28;20242;-60
2023/07/04 09:48:51;;;;;;;1069.95;970.30;;;;;;;23.95;47.65;96569.81;2076995;28;20264;-60
2023/07/04 09:50:25;;;;;;;1139.70;999.90;;;;;;;23.86;47.67;96576.00;2076684;28;20304;-61
2023/07/04 09:51:29;;;;;;;1169.18;999.90;;;;;;;23.58;47.71;96570.75;2082015;28;20315;-61
2023/07/04 09:52:30;;;;;;;1150.60;999.90;;;;;;;23.68;48.50;96565.38;2081148;28;20657;-60
2023/07/04 09:53:32;;;;;;;1446.55;999.90;;;;;;;23.38;48.37;96568.25;2080872;28;20536;-60
2023/07/04 09:54:36;;;;;;;1516.07;999.90;;;;;;;23.55;47.38;96573.75;2081014;28;20225;-61
2023/07/04 09:55:40;;;;;;;1049.10;958.53;;;;;;;23.53;46.83;96565.91;2083855;28;20204;-61
2023/07/04 09:56:42;;;;;;;1059.82;964.88;;;;;;;23.97;46.11;96562.47;2081751;28;20196;-61
2023/07/04 09:57:44;;;;;;;1105.18;993.42;;;;;;;24.23;46.62;96556.34;2079413;28;20197;-61
2023/07/04 09:58:46;;;;;;;1095.45;994.42;;;;;;;24.72;45.61;96561.16;2077904;28;20703;-61
2023/07/04 09:59:49;;;;;;;922.97;847.30;;;;;;;24.99;44.72;96554.78;2080086;28;20229;-61
2023/07/04 10:01:11;;;;;;;566.40;523.28;;;;;;;25.02;44.53;96559.78;2079847;28;20559;-61
2023/07/04 10:02:46;;;;;;;526.53;487.50;;;;;;;25.06;44.25;96565.63;2082242;28;20414;-61
2023/07/04 10:03:49;;;;;;;18.52;6.35;;;;;;;25.10;43.86;96557.16;2075082;28;20615;-60
2023/07/04 10:04:51;;;;;;;13.38;5.78;;;;;;;24.84;43.89;96551.03;2080778;28;20227;-60
2023/07/04 10:05:53;;;;;;;14.63;6.25;;;;;;;24.88;43.09;96557.72;2084889;28;20653;-59
2023/07/04 10:06:57;;;;;;;13.77;5.78;;;;;;;24.92;43.90;96551.06;2081733;28;20199;-59
2023/07/04 10:08:05;;;;;;;15.55;5.05;;;;;;;24.86;44.00;96557.03;2081956;28;20717;-59
2023/07/04 10:09:20;;;;;;;11.40;6.05;;;;;;;24.75;44.52;96553.66;2084169;28;20284;-61
2023/07/04 10:10:21;;;;;;;16.60;6.30;;;;;;;25.32;44.37;96548.69;2080437;28;20569;-60
2023/07/04 10:11:33;;;;;;;13.50;5.70;;;;;;;25.75;43.40;96555.63;2083026;28;20200;-60
2023/07/04 10:12:44;;;;;;;18.17;5.85;;;;;;;25.89;42.65;96554.13;2081631;28;20305;-60
2023/07/04 10:13:59;;;;;;;13.10;5.30;;;;;;;25.87;42.87;96552.63;2082309;28;20189;-60
2023/07/04 10:15:00;;;;;;;11.43;4.80;;;;;;;25.52;43.40;96549.25;2085384;28;20219;-60
2023/07/04 10:16:18;;;;;;;9.57;5.40;;;;;;;24.92;44.31;96548.41;2085776;28;20201;-60
2023/07/04 10:17:29;;;;;;;11.10;5.07;;;;;;;24.07;44.99;96549.06;2080151;28;20280;-60
2023/07/04 10:18:33;;;;;;;10.73;5.30;;;;;;;23.68;45.60;96552.91;2076473;28;20245;-60
2023/07/04 10:19:42;;;;;;;12.52;5.63;;;;;;;23.62;45.81;96551.66;2082390;28;20220;-60
2023/07/04 10:20:44;;;;;;;14.45;5.32;;;;;;;23.61;45.77;96547.31;2077288;28;20715;-60
2023/07/04 10:21:48;;;;;;;11.02;5.25;;;;;;;23.34;46.11;96553.56;2078123;28;20601;-61
2023/07/04 10:22:53;;;;;;;13.05;5.50;;;;;;;23.31;46.22;96551.19;2074761;28;20201;-60
2023/07/04 10:23:54;;;;;;;12.15;5.35;;;;;;;23.33;46.87;96554.53;2081463;28;20201;-60
2023/07/04 10:24:58;;;;;;;11.50;5.45;;;;;;;23.24;46.47;96555.47;2083054;28;20315;-60
2023/07/04 10:26:01;;;;;;;11.93;5.88;;;;;;;23.52;46.54;96552.75;2085483;28;20212;-60
2023/07/04 10:27:11;;;;;;;17.90;5.10;;;;;;;23.72;46.39;96553.41;2079725;28;20202;-60
2023/07/04 10:28:17;;;;;;;11.98;4.80;;;;;;;23.55;45.91;96560.41;2080802;28;20207;-60
2023/07/04 10:29:32;;;;;;;12.43;5.13;;;;;;;23.10;46.47;96551.44;2081481;28;20292;-60
2023/07/04 10:30:37;;;;;;;11.48;5.05;;;;;;;22.93;46.60;96545.06;2084160;28;20947;-63
2023/07/04 10:31:39;;;;;;;11.02;5.13;;;;;;;23.47;46.43;96548.69;2079345;28;20197;-60
2023/07/04 10:32:46;;;;;;;13.15;5.63;;;;;;;23.99;45.07;96544.50;2082548;28;20856;-60
2023/07/04 10:33:52;;;;;;;14.73;5.70;;;;;;;24.07;44.45;96543.72;2081155;28;20237;-60
2023/07/04 10:34:55;;;;;;;12.98;4.93;;;;;;;24.09;44.62;96550.56;2082274;28;20224;-60
2023/07/04 10:35:56;;;;;;;13.63;5.35;;;;;;;24.14;44.94;96542.13;2083208;28;20212;-60
2023/07/04 10:37:00;;;;;;;12.27;6.03;;;;;;;24.44;43.63;96535.47;2084640;28;20748;-60
2023/07/04 10:38:07;;;;;;;10.73;4.82;;;;;;;24.82;43.34;96545.03;2083325;28;20196;-60
2023/07/04 10:39:12;;;;;;;9.00;5.32;;;;;;;24.87;43.27;96537.38;2085304;28;20200;-60
2023/07/04 10:40:16;;;;;;;12.90;5.32;;;;;;;25.10;43.23;96540.28;2083252;28;20193;-60
2023/07/04 10:41:24;;;;;;;11.07;4.90;;;;;;;24.80;43.36;96544.34;2080130;28;20285;-60
2023/07/04 10:42:45;;;;;;;10.60;5.72;;;;;;;24.80;43.17;96544.34;2080896;28;20294;-60
2023/07/04 10:43:52;;;;;;;12.52;4.97;;;;;;;25.32;42.14;96538.00;2082926;28;20203;-61
2023/07/04 10:44:56;;;;;;;12.05;5.68;;;;;;;24.78;42.62;96539.16;2080640;28;20228;-61
2023/07/04 10:46:01;;;;;;;9.98;5.10;;;;;;;24.78;42.41;96536.50;2077673;28;20626;-61
2023/07/04 10:47:11;;;;;;;13.60;5.43;;;;;;;24.92;42.55;96535.91;2079156;28;20204;-60
2023/07/04 10:48:16;;;;;;;18.33;5.75;;;;;;;25.00;43.19;96540.44;2083235;28;20197;-60
2023/07/04 10:49:21;;;;;;;9.18;5.07;;;;;;;25.02;42.79;96538.41;2081482;28;20204;-60
2023/07/04 10:50:29;;;;;;;11.70;5.13;;;;;;;25.50;42.51;96540.59;2084071;28;20320;-60
2023/07/04 10:51:34;;;;;;;10.32;4.47;;;;;;;24.61;42.95;96528.38;2083105;28;20211;-60
2023/07/04 10:52:36;;;;;;;10.70;5.43;;;;;;;24.49;43.45;96529.63;2082071;28;20296;-61
2023/07/04 10:53:38;;;;;;;9.95;5.47;;;;;;;24.32;44.34;96528.72;2080947;28;20194;-60
2023/07/04 10:54:39;;;;;;;10.30;5.18;;;;;;;23.93;45.12;96532.66;2082320;28;20231;-60
2023/07/04 10:55:46;;;;;;;15.35;9.18;;;;;;;23.55;45.55;96531.09;2082297;28;20197;-60
2023/07/04 10:56:52;;;;;;;16.40;8.68;;;;;;;23.79;46.13;96527.81;2078451;28;20197;-60
2023/07/04 10:58:04;;;;;;;13.65;7.60;;;;;;;23.75;45.85;96540.59;2075649;28;20295;-61
2023/07/04 10:59:12;;;;;;;12.27;5.90;;;;;;;24.00;44.72;96532.00;2077772;28;20204;-60
2023/07/04 11:00:30;;;;;;;15.45;5.60;;;;;;;24.72;43.42;96529.13;2077648;28;20198;-60
2023/07/04 11:01:41;;;;;;;10.88;5.07;;;;;;;24.94;43.77;96536.56;2083519;28;20275;-60
2023/07/04 11:02:54;;;;;;;11.20;4.63;;;;;;;25.50;42.61;96530.72;2079100;28;20202;-60
2023/07/04 11:04:04;;;;;;;12.15;5.57;;;;;;;25.33;42.11;96523.63;2078080;28;20202;-60
2023/07/04 11:05:14;;;;;;;12.65;5.00;;;;;;;25.21;41.79;96528.47;2077705;28;20249;-61
2023/07/04 11:06:30;;;;;;;17.58;10.93;;;;;;;24.59;42.61;96521.53;2081342;28;20232;-59
2023/07/04 11:07:31;;;;;;;10.60;5.35;;;;;;;24.42;42.65;96516.09;2077378;28;20193;-59
2023/07/04 11:08:35;;;;;;;32.78;18.65;;;;;;;24.35;43.09;96527.56;2081124;28;20204;-59
2023/07/04 11:09:41;;;;;;;17.60;10.02;;;;;;;24.16;43.78;96525.94;2079542;28;20221;-59
2023/07/04 11:10:45;;;;;;;17.08;8.93;;;;;;;24.23;43.95;96525.16;2076877;28;20781;-59
2023/07/04 11:11:50;;;;;;;11.35;5.30;;;;;;;24.33;44.06;96535.75;2077803;28;20201;-60
2023/07/04 11:12:56;;;;;;;12.88;5.40;;;;;;;24.37;43.46;96530.94;2074996;28;20209;-60
2023/07/04 11:14:05;;;;;;;11.98;5.15;;;;;;;24.20;43.41;96529.97;2076892;28;20669;-60
2023/07/04 11:15:33;;;;;;;9.23;4.75;;;;;;;24.17;42.95;96525.78;2076901;28;20652;-59
2023/07/04 11:16:39;;;;;;;9.10;5.32;;;;;;;24.23;42.73;96529.69;2077261;28;20308;-59
2023/07/04 11:17:43;;;;;;;10.82;4.85;;;;;;;24.68;42.47;96525.94;2075639;28;21021;-59
2023/07/04 11:19:03;;;;;;;8.27;4.57;;;;;;;24.70;41.98;96523.13;2077432;28;20205;-59
2023/07/04 11:20:12;;;;;;;8.93;5.20;;;;;;;24.63;42.45;96525.53;2078906;28;20220;-60
2023/07/04 11:21:16;;;;;;;10.48;4.95;;;;;;;24.77;42.50;96533.00;2081554;28;20725;-60
2023/07/04 11:22:18;;;;;;;9.00;4.68;;;;;;;24.79;42.81;96524.81;2082292;28;20229;-60
2023/07/04 11:23:22;;;;;;;10.70;4.90;;;;;;;25.33;42.32;96527.16;2082286;28;20254;-59
2023/07/04 11:24:23;;;;;;;10.68;4.85;;;;;;;25.15;41.78;96518.44;2081135;28;20711;-59
2023/07/04 11:25:25;;;;;;;10.02;4.80;;;;;;;25.32;42.20;96524.63;2083866;28;20200;-59
2023/07/04 11:26:51;;;;;;;8.32;4.07;;;;;;;25.13;41.91;96529.28;2084103;28;20193;-60
2023/07/04 11:28:14;;;;;;;9.65;4.60;;;;;;;24.90;41.93;96521.00;2079268;28;20436;-60
2023/07/04 11:29:19;;;;;;;7.35;4.43;;;;;;;24.54;42.30;96523.84;2080973;28;20891;-59
2023/07/04 11:30:34;;;;;;;11.15;4.57;;;;;;;24.48;42.57;96519.13;2081516;28;20192;-60
2023/07/04 11:32:02;;;;;;;12.57;4.72;;;;;;;24.08;43.75;96524.06;2081765;28;20231;-59
2023/07/04 11:33:07;;;;;;;12.40;5.38;;;;;;;23.99;44.29;96527.69;2083917;28;20196;-58
2023/07/04 11:34:10;;;;;;;9.77;4.70;;;;;;;24.18;44.48;96524.81;2082745;28;20240;-59
2023/07/04 11:35:15;;;;;;;6.60;4.45;;;;;;;23.80;44.41;96525.00;2084262;28;20253;-58
2023/07/04 11:36:24;;;;;;;10.10;4.57;;;;;;;23.53;44.67;96522.41;2080996;28;20204;-58
2023/07/04 11:37:37;;;;;;;12.32;4.95;;;;;;;23.46;44.69;96525.72;2082313;28;20753;-59
2023/07/04 11:38:43;;;;;;;11.38;5.60;;;;;;;23.52;44.39;96524.25;2080745;28;20293;-58
2023/07/04 11:39:49;;;;;;;9.40;4.25;;;;;;;23.63;44.26;96521.38;2078436;28;20228;-59
2023/07/04 11:40:54;;;;;;;9.77;4.43;;;;;;;23.61;45.12;96522.50;2077063;28;20567;-59
2023/07/04 11:41:57;;;;;;;10.18;4.40;;;;;;;23.53;44.83;96527.75;2083070;28;20789;-59
2023/07/04 11:43:21;;;;;;;11.77;4.80;;;;;;;23.66;45.22;96522.06;2083664;28;20282;-59
2023/07/04 11:44:31;;;;;;;11.32;5.20;;;;;;;23.57;44.22;96531.81;2079171;28;20972;-59
2023/07/04 11:45:33;;;;;;;8.05;3.80;;;;;;;23.28;44.10;96520.38;2081291;28;20216;-59
2023/07/04 11:46:35;;;;;;;10.80;5.30;;;;;;;23.42;44.31;96526.16;2081278;28;20341;-58
2023/07/04 11:47:40;;;;;;;10.63;4.35;;;;;;;23.76;43.85;96523.63;2078240;28;20248;-58
2023/07/04 11:48:48;;;;;;;7.07;3.85;;;;;;;23.67;43.86;96523.72;2078423;28;20279;-58
2023/07/04 11:49:56;;;;;;;10.07;4.20;;;;;;;24.01;43.20;96515.88;2081237;28;20299;-59
2023/07/04 11:51:10;;;;;;;8.93;4.60;;;;;;;24.38;43.42;96519.25;2080182;28;20255;-59
2023/07/04 11:52:25;;;;;;;7.80;3.45;;;;;;;25.36;42.02;96518.00;2077658;28;20233;-59
2023/07/04 11:53:45;;;;;;;7.55;4.18;;;;;;;26.04;41.72;96522.22;2078073;28;20201;-59
2023/07/04 11:54:56;;;;;;;8.68;3.85;;;;;;;26.03;40.72;96517.84;2078675;28;20240;-59
2023/07/04 11:56:22;;;;;;;8.70;4.15;;;;;;;25.55;41.68;96517.69;2083139;28;20219;-59
2023/07/04 11:58:02;;;;;;;8.07;4.07;;;;;;;25.28;41.99;96513.47;2077606;28;20197;-58
2023/07/04 11:59:18;;;;;;;11.65;4.18;;;;;;;24.98;42.56;96515.72;2078314;28;20655;-59
2023/07/04 12:00:30;;;;;;;10.25;3.42;;;;;;;24.52;43.46;96513.31;2078164;28;20777;-58
2023/07/04 12:01:51;;;;;;;12.32;4.00;;;;;;;24.67;43.43;96512.75;2075178;28;20201;-59
2023/07/04 12:02:53;;;;;;;9.13;3.85;;;;;;;24.53;43.19;96509.66;2080268;28;20206;-59
2023/07/04 12:03:58;;;;;;;9.90;4.25;;;;;;;24.35;43.17;96504.38;2078738;28;20280;-59
2023/07/04 12:05:02;;;;;;;8.77;4.22;;;;;;;24.34;43.50;96504.56;2078851;28;20284;-58
2023/07/04 12:06:05;;;;;;;7.72;3.63;;;;;;;24.31;43.36;96505.69;2081945;28;20788;-58
2023/07/04 12:07:16;;;;;;;10.07;4.40;;;;;;;23.85;44.77;96505.88;2081948;28;20207;-58
2023/07/04 12:08:37;;;;;;;8.30;4.40;;;;;;;23.79;44.83;96518.00;2088682;28;20196;-58
2023/07/04 12:09:55;;;;;;;10.77;4.25;;;;;;;23.93;44.85;96511.31;2088155;28;20211;-58
2023/07/04 12:10:59;;;;;;;9.55;4.13;;;;;;;24.09;44.54;96509.75;2082637;28;20203;-59
2023/07/04 12:12:04;;;;;;;9.85;3.65;;;;;;;23.88;45.13;96513.56;2080841;28;20198;-59
2023/07/04 12:13:08;;;;;;;9.95;3.83;;;;;;;24.10;43.89;96514.91;2079987;28;20284;-59
2023/07/04 12:14:13;;;;;;;13.65;4.38;;;;;;;24.34;44.32;96507.22;2076199;28;20215;-58
2023/07/04 12:15:42;;;;;;;16.63;5.15;;;;;;;25.12;43.06;96508.91;2079407;28;20245;-58
2023/07/04 12:16:44;;;;;;;11.30;4.78;;;;;;;25.81;42.72;96510.50;2078090;28;20230;-59
2023/07/04 12:17:48;;;;;;;10.73;4.18;;;;;;;25.92;41.36;96505.66;2080174;28;20587;-58
2023/07/04 12:18:49;;;;;;;7.75;3.30;;;;;;;25.14;42.57;96514.94;2084393;28;20376;-58
2023/07/04 12:20:00;;;;;;;7.97;3.80;;;;;;;25.01;43.06;96498.53;2081040;28;20217;-58
2023/07/04 12:21:02;;;;;;;7.97;3.45;;;;;;;24.70;42.84;96499.09;2082606;28;20554;-59
2023/07/04 12:22:03;;;;;;;6.30;3.28;;;;;;;24.73;42.65;96510.25;2083133;28;20200;-58
2023/07/04 12:23:09;;;;;;;12.90;4.68;;;;;;;25.11;42.98;96517.91;2081514;28;20211;-58
2023/07/04 12:24:18;;;;;;;7.13;4.50;;;;;;;24.85;42.57;96513.50;2079154;28;20211;-59
2023/07/04 12:25:36;;;;;;;34.90;22.40;;;;;;;24.99;42.70;96501.38;2080331;28;20200;-59
2023/07/04 12:26:37;;;;;;;21.50;13.30;;;;;;;24.55;43.40;96509.50;2076706;28;20284;-59
2023/07/04 12:27:42;;;;;;;13.93;5.95;;;;;;;24.37;43.80;96501.59;2075590;28;20197;-59